Hochheim, Texas
Current Conditions -  °F | °C
As of 5:15 PM on Wednesday 22 Oct 2014 (Local Time) from KT20 Reporting Station
Clear Clear  
Wind Chill: 83°   Ceiling: Unl
Heat Index: 83°   Visibility: 10mi
Dew Point: 58°   Wind: 5mph
Humidity: 42%   Direction: 50°NE
Pressure: 30.02"   Gusts: NA
Location:  29.31°N, 97.29°W
Report Text: KT20 222215Z AUTO 05004KT 10SM CLR 28/14 A3002 RMK AO2 T02820142
Loading
Personal Weather Stations






























Interactive Weather Map
Tropical Storm Tracking
New forecast layout! Learn more

10-Day Weather Forecast

Advertisements
Track Severe Weather on mobile